Αναφορές METAR από Ελληνικά Αεροδρόμια

Σε αυτή τη σελίδα, μπορείτε να παρακολουθείτε τις αναφορές METAR που προέρχονται από τα κυριότερα αεροδρόμια της Ελλάδας. Το περιεχόμενο αποκωδικοποιείται, οπτικοποιείται και γίνεται κατανοητό από τον καθένα με τη χρήση του όμορφου δίγλωσσου γραφικού περιβάλλοντος του meteothes.gr!

Η αρχική κωδικοποιημένη αναφορά, συμπεριλαμβάνεται επίσης στο κάτω μέρος. Σε όποια καθεστερεί η ενημέρωση, το προειδοποιητικό μήνυμα "Μη ενημερωμένο METAR!" εμφανίζεται στο πάνω μέρος της με κόκκινα γράμματα.

Εχουν προστεθεί επίσης δύο αεροδρόμια από γειτονικές χώρες, την Οχρίδα(ΠΓΔΜ) και την Σόφια(Βουλγαρία) για να ελέγχουμε την εξέλιξη των ψυχρών εισβολών από τα Βόρεια!

LGTS - Thessaloniki/Makedonia-Elev 7m
Απόσταση από meteothes.gr: Ν 13km
Ενημερώθηκε: 24/01/2022 05:20
Διάσπαρτα Nέφη
Διάσπαρτα Nέφη
 Ανεμος από ΒΒΔ
Ανεμος: ΒΒΔ 17 km/h
Θερμοκρασία: 0°C
Αίσθηση Ψύχρας: -4°C
Σημ. Δρόσου: -9°C
Υγρασία: 51%
Βαρόμετρο: 1025 hPa
Νέφωση: Διάσπαρτα Nέφη
Ορατότητα: 10 km
Λεπτομέρειες Νεφών: Διάσπαρτα Nέφη 762 m
2022/01/24 03:20 LGTS 240320Z 34009KT 9999 FEW025 00/M09 Q1025 NOSIG
LGAV - Athens/Elef. Venizelos-Elev 94m
Απόσταση από meteothes.gr: ΝΝΑ 312km
Ενημερώθηκε: 24/01/2022 05:20
Μερικώς νεφελώδης
Μερικώς νεφελώδης
 Ανεμος από ΒΒΔ
Ανεμος: ΒΒΔ 19 km/h
Θερμοκρασία: 2°C
Αίσθηση Ψύχρας: -2°C
Σημ. Δρόσου: -7°C
Υγρασία: 52%
Βαρόμετρο: 1020 hPa
Νέφωση: Μερικώς νεφελώδης
Ορατότητα: 10 km
Λεπτομέρειες Νεφών: Μερικώς νεφελώδης 762 m
2022/01/24 03:20 LGAV 240320Z 34010KT 300V360 9999 SCT025 02/M07 Q1020 NOSIG
 
LGAL - Alexandroupolis-Elev 3m
Απόσταση από meteothes.gr: Α 251km
Ενημερώθηκε: 24/01/2022 05:20
Διάσπαρτα Nέφη
Διάσπαρτα Nέφη
 Ανεμος από Β
Ανεμος: Β 19 km/h
Θερμοκρασία: -2°C
Αίσθηση Ψύχρας: -8°C
Σημ. Δρόσου: -8°C
Υγρασία: 64%
Βαρόμετρο: 1023 hPa
Νέφωση: Διάσπαρτα Nέφη
Ορατότητα: 10 km
Λεπτομέρειες Νεφών: Διάσπαρτα Nέφη 610 m
2022/01/24 03:20 LGAL 240320Z 01010KT 9999 FEW020 M02/M08 Q1023
LGKV - Kavala/Crysoupolis-Elev 5m
Απόσταση από meteothes.gr: ΑΒΑ 144km
Ενημερώθηκε: 23/01/2022 20:20
ΜΗ Ενημερωμένο METAR!
Ασθενής χιονόπτωση, Συννεφιά
Ασθενής χιονόπτωση, Συννεφιά
 Ανεμος από ΒΑ
Ανεμος: ΒΑ 13 km/h
Θερμοκρασία: 1°C
Αίσθηση Ψύχρας: -3°C
Σημ. Δρόσου: -5°C
Υγρασία: 65%
Βαρόμετρο: 1023 hPa
Συνθήκες: Ασθενής Χιονόπτωση
Νέφωση: Συννεφιά
Ορατότητα: 10 km
Λεπτομέρειες Νεφών: Διάσπαρτα Nέφη 457 m
Συννεφιά 762 m
2022/01/23 18:20 LGKV 231820Z 05007KT 9999 -SN FEW015 OVC025 01/M05 Q1023
 
LGSK - Skiathos Island-Elev 15m
Απόσταση από meteothes.gr: ΝΝΑ 168km
Ενημερώθηκε: 23/01/2022 12:50
ΜΗ Ενημερωμένο METAR!
Κυρίως νεφελώδης
Κυρίως νεφελώδης
 Ανεμος από ΒΒΔ
Ανεμος: ΒΒΔ 24 km/h
Θερμοκρασία: 5°C
Αίσθηση Ψύχρας: 1°C
Σημ. Δρόσου: -5°C
Υγρασία: 49%
Βαρόμετρο: 1022 hPa
Νέφωση: Κυρίως νεφελώδης
Ορατότητα: 10 km
Λεπτομέρειες Νεφών: Διάσπαρτα Nέφη 549 m
Κυρίως νεφελώδης 762 m
2022/01/23 10:50 LGSK 231050Z 34013KT 9999 FEW018 BKN025 05/M05 Q1022
LGLM - Limnos Island-Elev 5m
Απόσταση από meteothes.gr: ΑΝΑ 210km
Ενημερώθηκε: 24/01/2022 05:20
Κυρίως νεφελώδης
Κυρίως νεφελώδης
 Ανεμος από ΑΒΑ
Ανεμος: ΑΒΑ 22 km/h, Ριπή: 41 km/h
Θερμοκρασία: 1°C
Αίσθηση Ψύχρας: -4°C
Σημ. Δρόσου: -5°C
Υγρασία: 65%
Βαρόμετρο: 1022 hPa
Νέφωση: Κυρίως νεφελώδης
Ορατότητα: 10 km
Λεπτομέρειες Νεφών: Μερικώς νεφελώδης 244 m
Κυρίως νεφελώδης 457 m
2022/01/24 03:20 LGLM 240320Z 07012G22KT 9999 SCT008 BKN015 01/M05 Q1022
 
LGMT - Mitilini Island-Elev 17m
Απόσταση από meteothes.gr: ΑΝΑ 358km
Ενημερώθηκε: 23/01/2022 22:50
ΜΗ Ενημερωμένο METAR!
Κυρίως νεφελώδης
Κυρίως νεφελώδης
 Ανεμος από ΑΒΑ
Ανεμος: ΑΒΑ 19 km/h
Θερμοκρασία: 3°C
Αίσθηση Ψύχρας: -2°C
Σημ. Δρόσου: -4°C
Υγρασία: 60%
Βαρόμετρο: 1022 hPa
Νέφωση: Κυρίως νεφελώδης
Ορατότητα: 10 km
Λεπτομέρειες Νεφών: Κυρίως νεφελώδης 610 m
2022/01/23 20:50 LGMT 232050Z 06010KT 9999 BKN020 03/M04 Q1022
LGSY - Skiros Island-Elev 15m
Απόσταση από meteothes.gr: ΝΑ 227km
Ενημερώθηκε: 23/01/2022 19:50
ΜΗ Ενημερωμένο METAR!
Μερικώς νεφελώδης
Μερικώς νεφελώδης
 Ανεμος από Β
Ανεμος: Β 11 km/h
Θερμοκρασία: 4°C
Αίσθηση Ψύχρας: 1°C
Σημ. Δρόσου: -5°C
Υγρασία: 52%
Βαρόμετρο: 1022 hPa
Νέφωση: Μερικώς νεφελώδης
Ορατότητα: 10 km
Λεπτομέρειες Νεφών: Διάσπαρτα Nέφη 549 m
Μερικώς νεφελώδης 914 m
2022/01/23 17:50 LGSY 231750Z 35006KT 9999 FEW018TCU SCT030 04/M05 Q1022 BLU
 
LGKZ - Kozani-Elev 628m
Απόσταση από meteothes.gr: ΔΝΔ 102km
Ενημερώθηκε: 24/01/2022 05:20

 Ανεμος από ΒΔ
Ανεμος: ΒΔ 11 km/h
Θερμοκρασία: -6°C
Αίσθηση Ψύχρας: -11°C
Σημ. Δρόσου: -13°C
Υγρασία: 58%
Βαρόμετρο: 1021 hPa
2022/01/24 03:20 LGKZ 240320Z AUTO 32006KT 270V100 //// // ////// M06/M13 Q1021 RE//
LGIO - Ioannina-Elev 476m
Απόσταση από meteothes.gr: ΔΝΔ 209km
Ενημερώθηκε: 24/01/2022 05:20

 Ανεμος από Δ
Ανεμος: Δ 7 km/h
Θερμοκρασία: -3°C
Αίσθηση Ψύχρας: -6°C
Σημ. Δρόσου: -16°C
Υγρασία: 36%
Βαρόμετρο: 1020 hPa
2022/01/24 03:20 LGIO 240320Z AUTO 27004KT 240V330 //// // ////// M03/M16 Q1020 RE//
 
LGZA - Zakinthos-Elev 3m
Απόσταση από meteothes.gr: ΝΝΔ 367km
Ενημερώθηκε: 23/01/2022 19:50
ΜΗ Ενημερωμένο METAR!
Διάσπαρτα Nέφη
Διάσπαρτα Nέφη
 Ανεμος από άπνοια
Ανεμος: άπνοια
Θερμοκρασία: 2°C
Σημ. Δρόσου: -2°C
Υγρασία: 75%
Βαρόμετρο: 1022 hPa
Νέφωση: Διάσπαρτα Nέφη
Ορατότητα: 10 km
Λεπτομέρειες Νεφών: Διάσπαρτα Nέφη 549 m
2022/01/23 17:50 LGZA 231750Z 00000KT 9999 FEW018 02/M02 Q1022
LGKR - Corfu Island-Elev 2m
Απόσταση από meteothes.gr: ΔΝΔ 282km
Ενημερώθηκε: 24/01/2022 05:20
Διάσπαρτα Nέφη
Διάσπαρτα Nέφη
 Ανεμος από Β
Ανεμος: Β 13 km/h
Θερμοκρασία: 4°C
Αίσθηση Ψύχρας: 1°C
Σημ. Δρόσου: -8°C
Υγρασία: 42%
Βαρόμετρο: 1021 hPa
Νέφωση: Διάσπαρτα Nέφη
Ορατότητα: 10 km
Λεπτομέρειες Νεφών: Διάσπαρτα Nέφη 762 m
2022/01/24 03:20 LGKR 240320Z 01007KT 9999 FEW025 04/M08 Q1021 NOSIG
 
LGSO - Syros Island-Elev 72m
Απόσταση από meteothes.gr: ΝΝΑ 397km
Ενημερώθηκε: 24/01/2022 00:50
ΜΗ Ενημερωμένο METAR!

 
2022/01/23 22:50 LGSO 232250Z AUTO 010//KT //// // ////// 03/// Q1020 RE//
LGMK - Mikonos Island-Elev 123m
Απόσταση από meteothes.gr: ΝΝΑ 412km
Ενημερώθηκε: 23/01/2022 19:50
ΜΗ Ενημερωμένο METAR!
Μερικώς νεφελώδης
Μερικώς νεφελώδης
 Ανεμος από Β
Ανεμος: Β 11 km/h
Θερμοκρασία: 2°C
Αίσθηση Ψύχρας: -1°C
Σημ. Δρόσου: -1°C
Υγρασία: 81%
Βαρόμετρο: 1020 hPa
Νέφωση: Μερικώς νεφελώδης
Ορατότητα: 10 km
Λεπτομέρειες Νεφών: Μερικώς νεφελώδης 244 m
Μερικώς νεφελώδης 610 m
2022/01/23 17:50 LGMK 231750Z 01006KT 9999 SCT008 SCT020 02/M01 Q1020
 
LGSR - Santorini Island-Elev 40m
Απόσταση από meteothes.gr: ΝΝΑ 520km
Ενημερώθηκε: 23/01/2022 19:50
ΜΗ Ενημερωμένο METAR!
Κυρίως νεφελώδης
Κυρίως νεφελώδης
 Ανεμος από Β
Ανεμος: Β 31 km/h
Θερμοκρασία: 4°C
Αίσθηση Ψύχρας: -2°C
Σημ. Δρόσου: 1°C
Υγρασία: 81%
Βαρόμετρο: 1021 hPa
Νέφωση: Κυρίως νεφελώδης
Ορατότητα: 10 km
Λεπτομέρειες Νεφών: Κυρίως νεφελώδης 610 m
2022/01/23 17:50 LGSR 231750Z 36017KT 9999 BKN020 04/01 Q1021
LGKL - Kalamata-Elev 8m
Απόσταση από meteothes.gr: Ν 405km
Ενημερώθηκε: 24/01/2022 05:20

 Ανεμος από ΒΒΔ
Ανεμος: ΒΒΔ 7 km/h
Θερμοκρασία: -1°C
Αίσθηση Ψύχρας: -4°C
Σημ. Δρόσου: -5°C
Υγρασία: 75%
Βαρόμετρο: 1019 hPa
2022/01/24 03:20 LGKL 240320Z AUTO 33004KT 300V360 //// // ////// M01/M05 Q1019 RE//
 
LGIR - Iraklion/Crete-Elev 5m
Απόσταση από meteothes.gr: ΝΝΑ 622km
Ενημερώθηκε: 24/01/2022 05:20
Κυρίως νεφελώδης
Κυρίως νεφελώδης
 Ανεμος από ΝΝΑ
Ανεμος: ΝΝΑ 17 km/h
Θερμοκρασία: 2°C
Αίσθηση Ψύχρας: -2°C
Σημ. Δρόσου: 0°C
Υγρασία: 87%
Βαρόμετρο: 1019 hPa
Νέφωση: Κυρίως νεφελώδης
Ορατότητα: 10 km
Λεπτομέρειες Νεφών: Διάσπαρτα Nέφη 305 m
Κυρίως νεφελώδης 762 m
Κυρίως νεφελώδης 2438 m
2022/01/24 03:20 LGIR 240320Z 16009KT 9999 FEW010 BKN025 BKN080 02/M00 Q1019 NOSIG
LGRP - Rhodes-Elev 5m
Απόσταση από meteothes.gr: ΝΑ 649km
Ενημερώθηκε: 24/01/2022 05:20
Μερικώς νεφελώδης
Μερικώς νεφελώδης
 Ανεμος από μεταβλητός
Ανεμος: μεταβλητός 4 km/h
Θερμοκρασία: 2°C
Σημ. Δρόσου: -7°C
Υγρασία: 52%
Βαρόμετρο: 1018 hPa
Νέφωση: Μερικώς νεφελώδης
Ορατότητα: 10 km
Λεπτομέρειες Νεφών: Μερικώς νεφελώδης 610 m
2022/01/24 03:20 LGRP 240320Z VRB02KT 9999 SCT020 02/M07 Q1018 NOSIG
 
LWOH - Ohrid/FYROM-Elev 761m
Απόσταση από meteothes.gr: ΔΒΔ 188km
Ενημερώθηκε: 23/01/2022 22:00
ΜΗ Ενημερωμένο METAR!
Μερικώς νεφελώδης
Μερικώς νεφελώδης
 Ανεμος από ΒΔ
Ανεμος: ΒΔ 11 km/h
Θερμοκρασία: -7°C
Αίσθηση Ψύχρας: -12°C
Σημ. Δρόσου: -14°C
Υγρασία: 58%
Βαρόμετρο: 1021 hPa
Νέφωση: Μερικώς νεφελώδης
Ορατότητα: 10 km
Λεπτομέρειες Νεφών: Μερικώς νεφελώδης 1524 m
Μερικώς νεφελώδης 2743 m
2022/01/23 20:00 LWOH 232000Z 31006KT 9999 SCT050 SCT090 M07/M14 Q1021
LBSF - Sofia/Bulgaria-Elev 595m
Απόσταση από meteothes.gr: Β 227km
Ενημερώθηκε: 24/01/2022 05:30
Ασθενής χιονόπτωση, Συννεφιά
Ασθενής χιονόπτωση, Συννεφιά
 Ανεμος από μεταβλητός
Ανεμος: μεταβλητός 4 km/h
Θερμοκρασία: -7°C
Σημ. Δρόσου: -9°C
Υγρασία: 86%
Βαρόμετρο: 1024 hPa
Συνθήκες: Ασθενής Χιονόπτωση
Νέφωση: Συννεφιά
Ορατότητα: 8 km
Λεπτομέρειες Νεφών: Μερικώς νεφελώδης 610 m
Κυρίως νεφελώδης 975 m
Συννεφιά 1219 m
2022/01/24 03:30 LBSF 240330Z VRB02KT 8000 -SN SCT020 BKN032 OVC040 M07/M09 Q1024 TEMPO 5000 SN

(*) Μερικές αναφορές παρουσιάζουν λιγότερα στοιχεία γιατί οι αρχικές είναι ελλιπείς ή έχουν λάθος μορφοποίηση!